sensor_id;sensor_type;location;lat;lon;timestamp;P1;durP1;ratioP1;P2;durP2;ratioP2
61689;SDS011;47601;52.086;4.878;2022-07-21T00:01:20;10.07;;;8.52;;
61689;SDS011;47601;52.086;4.878;2022-07-21T00:03:46;9.40;;;8.40;;
61689;SDS011;47601;52.086;4.878;2022-07-21T00:06:11;10.88;;;9.30;;
61689;SDS011;47601;52.086;4.878;2022-07-21T00:08:37;11.18;;;10.07;;
61689;SDS011;47601;52.086;4.878;2022-07-21T00:11:02;9.73;;;8.82;;
61689;SDS011;47601;52.086;4.878;2022-07-21T00:13:28;11.13;;;9.95;;
61689;SDS011;47601;52.086;4.878;2022-07-21T00:15:53;11.82;;;10.73;;
61689;SDS011;47601;52.086;4.878;2022-07-21T00:18:19;11.57;;;10.38;;
61689;SDS011;47601;52.086;4.878;2022-07-21T00:20:45;12.95;;;11.55;;
61689;SDS011;47601;52.086;4.878;2022-07-21T00:23:10;12.05;;;10.85;;
61689;SDS011;47601;52.086;4.878;2022-07-21T00:25:36;12.35;;;11.05;;
61689;SDS011;47601;52.086;4.878;2022-07-21T00:28:02;12.98;;;11.70;;
61689;SDS011;47601;52.086;4.878;2022-07-21T00:30:29;13.05;;;11.82;;
61689;SDS011;47601;52.086;4.878;2022-07-21T00:32:54;13.02;;;11.63;;
61689;SDS011;47601;52.086;4.878;2022-07-21T00:35:20;13.82;;;12.20;;
61689;SDS011;47601;52.086;4.878;2022-07-21T00:37:45;12.98;;;11.20;;
61689;SDS011;47601;52.086;4.878;2022-07-21T00:40:11;12.40;;;11.20;;
61689;SDS011;47601;52.086;4.878;2022-07-21T00:42:38;12.20;;;11.00;;
61689;SDS011;47601;52.086;4.878;2022-07-21T00:45:06;14.27;;;12.77;;
61689;SDS011;47601;52.086;4.878;2022-07-21T00:47:32;13.57;;;12.20;;
61689;SDS011;47601;52.086;4.878;2022-07-21T00:49:59;12.93;;;11.63;;
61689;SDS011;47601;52.086;4.878;2022-07-21T00:52:26;15.50;;;12.65;;
61689;SDS011;47601;52.086;4.878;2022-07-21T00:54:52;14.93;;;12.85;;
61689;SDS011;47601;52.086;4.878;2022-07-21T00:57:18;15.07;;;13.50;;
61689;SDS011;47601;52.086;4.878;2022-07-21T00:59:44;13.82;;;12.43;;
61689;SDS011;47601;52.086;4.878;2022-07-21T01:02:10;15.60;;;13.73;;
61689;SDS011;47601;52.086;4.878;2022-07-21T01:04:36;14.88;;;12.73;;
61689;SDS011;47601;52.086;4.878;2022-07-21T01:07:02;14.88;;;13.45;;
61689;SDS011;47601;52.086;4.878;2022-07-21T01:09:29;14.90;;;13.33;;
61689;SDS011;47601;52.086;4.878;2022-07-21T01:11:54;15.30;;;13.70;;
61689;SDS011;47601;52.086;4.878;2022-07-21T01:14:20;15.50;;;13.90;;
61689;SDS011;47601;52.086;4.878;2022-07-21T01:16:46;16.77;;;15.18;;
61689;SDS011;47601;52.086;4.878;2022-07-21T01:19:11;16.90;;;15.10;;
61689;SDS011;47601;52.086;4.878;2022-07-21T01:21:40;15.63;;;14.05;;
61689;SDS011;47601;52.086;4.878;2022-07-21T01:24:07;16.83;;;15.15;;
61689;SDS011;47601;52.086;4.878;2022-07-21T01:26:46;17.88;;;15.75;;
61689;SDS011;47601;52.086;4.878;2022-07-21T01:29:13;18.10;;;16.15;;
61689;SDS011;47601;52.086;4.878;2022-07-21T01:31:40;18.17;;;16.38;;
61689;SDS011;47601;52.086;4.878;2022-07-21T01:34:07;17.17;;;15.37;;
61689;SDS011;47601;52.086;4.878;2022-07-21T01:36:33;18.23;;;16.27;;
61689;SDS011;47601;52.086;4.878;2022-07-21T01:38:58;17.48;;;15.85;;
61689;SDS011;47601;52.086;4.878;2022-07-21T01:41:43;19.55;;;16.85;;
61689;SDS011;47601;52.086;4.878;2022-07-21T01:44:10;20.25;;;18.20;;
61689;SDS011;47601;52.086;4.878;2022-07-21T01:46:39;18.38;;;16.25;;
61689;SDS011;47601;52.086;4.878;2022-07-21T01:49:07;20.65;;;18.48;;
61689;SDS011;47601;52.086;4.878;2022-07-21T01:51:33;20.55;;;18.35;;
61689;SDS011;47601;52.086;4.878;2022-07-21T01:53:58;21.35;;;19.17;;
61689;SDS011;47601;52.086;4.878;2022-07-21T01:56:24;20.35;;;18.25;;
61689;SDS011;47601;52.086;4.878;2022-07-21T01:58:50;21.88;;;19.50;;
61689;SDS011;47601;52.086;4.878;2022-07-21T02:01:17;20.05;;;17.98;;
61689;SDS011;47601;52.086;4.878;2022-07-21T02:03:44;20.13;;;18.23;;
61689;SDS011;47601;52.086;4.878;2022-07-21T02:06:10;21.10;;;18.83;;
61689;SDS011;47601;52.086;4.878;2022-07-21T02:08:36;22.08;;;19.90;;
61689;SDS011;47601;52.086;4.878;2022-07-21T02:11:02;20.40;;;18.50;;
61689;SDS011;47601;52.086;4.878;2022-07-21T02:13:28;20.40;;;18.48;;
61689;SDS011;47601;52.086;4.878;2022-07-21T02:15:53;22.00;;;19.83;;
61689;SDS011;47601;52.086;4.878;2022-07-21T02:18:19;21.05;;;18.85;;
61689;SDS011;47601;52.086;4.878;2022-07-21T02:20:45;22.45;;;20.20;;
61689;SDS011;47601;52.086;4.878;2022-07-21T02:23:15;21.00;;;18.80;;
61689;SDS011;47601;52.086;4.878;2022-07-21T02:25:43;20.42;;;18.38;;
61689;SDS011;47601;52.086;4.878;2022-07-21T02:28:09;21.63;;;18.27;;
61689;SDS011;47601;52.086;4.878;2022-07-21T02:30:35;22.17;;;19.80;;
61689;SDS011;47601;52.086;4.878;2022-07-21T02:33:00;22.55;;;20.15;;
61689;SDS011;47601;52.086;4.878;2022-07-21T02:35:26;23.60;;;21.27;;
61689;SDS011;47601;52.086;4.878;2022-07-21T02:37:51;23.92;;;21.42;;
61689;SDS011;47601;52.086;4.878;2022-07-21T02:40:17;23.75;;;20.85;;
61689;SDS011;47601;52.086;4.878;2022-07-21T02:42:42;23.40;;;21.10;;
61689;SDS011;47601;52.086;4.878;2022-07-21T02:45:08;22.55;;;20.27;;
61689;SDS011;47601;52.086;4.878;2022-07-21T02:50:17;25.10;;;22.60;;
61689;SDS011;47601;52.086;4.878;2022-07-21T02:52:42;24.95;;;22.02;;
61689;SDS011;47601;52.086;4.878;2022-07-21T02:55:08;26.02;;;22.67;;
61689;SDS011;47601;52.086;4.878;2022-07-21T02:57:34;23.83;;;21.50;;
61689;SDS011;47601;52.086;4.878;2022-07-21T02:59:59;26.77;;;24.00;;
61689;SDS011;47601;52.086;4.878;2022-07-21T03:02:24;26.13;;;23.30;;
61689;SDS011;47601;52.086;4.878;2022-07-21T03:04:50;26.58;;;23.85;;
61689;SDS011;47601;52.086;4.878;2022-07-21T03:07:15;27.30;;;24.48;;
61689;SDS011;47601;52.086;4.878;2022-07-21T03:09:41;27.38;;;24.23;;
61689;SDS011;47601;52.086;4.878;2022-07-21T03:12:06;25.83;;;23.05;;
61689;SDS011;47601;52.086;4.878;2022-07-21T03:14:32;27.05;;;24.15;;
61689;SDS011;47601;52.086;4.878;2022-07-21T03:16:57;25.73;;;23.10;;
61689;SDS011;47601;52.086;4.878;2022-07-21T03:19:23;26.27;;;23.45;;
61689;SDS011;47601;52.086;4.878;2022-07-21T03:21:48;26.70;;;23.90;;
61689;SDS011;47601;52.086;4.878;2022-07-21T03:24:14;27.10;;;24.27;;
61689;SDS011;47601;52.086;4.878;2022-07-21T03:26:39;27.65;;;24.80;;
61689;SDS011;47601;52.086;4.878;2022-07-21T03:29:05;30.67;;;25.83;;
61689;SDS011;47601;52.086;4.878;2022-07-21T03:31:31;28.20;;;25.23;;
61689;SDS011;47601;52.086;4.878;2022-07-21T03:33:56;28.65;;;25.85;;
61689;SDS011;47601;52.086;4.878;2022-07-21T03:36:21;28.95;;;25.48;;
61689;SDS011;47601;52.086;4.878;2022-07-21T03:38:47;28.50;;;25.48;;
61689;SDS011;47601;52.086;4.878;2022-07-21T03:41:14;27.02;;;24.05;;
61689;SDS011;47601;52.086;4.878;2022-07-21T03:43:40;26.08;;;23.38;;
61689;SDS011;47601;52.086;4.878;2022-07-21T03:46:05;26.23;;;23.60;;
61689;SDS011;47601;52.086;4.878;2022-07-21T03:48:31;27.67;;;24.75;;
61689;SDS011;47601;52.086;4.878;2022-07-21T03:50:57;27.50;;;24.52;;
61689;SDS011;47601;52.086;4.878;2022-07-21T03:53:22;28.38;;;25.35;;
61689;SDS011;47601;52.086;4.878;2022-07-21T03:55:47;30.15;;;26.90;;
61689;SDS011;47601;52.086;4.878;2022-07-21T03:58:13;27.88;;;24.92;;
61689;SDS011;47601;52.086;4.878;2022-07-21T04:00:40;27.38;;;24.48;;
61689;SDS011;47601;52.086;4.878;2022-07-21T04:03:07;29.48;;;24.35;;
61689;SDS011;47601;52.086;4.878;2022-07-21T04:05:33;28.77;;;25.65;;
61689;SDS011;47601;52.086;4.878;2022-07-21T04:08:00;29.10;;;26.20;;
61689;SDS011;47601;52.086;4.878;2022-07-21T04:10:27;30.92;;;26.00;;
61689;SDS011;47601;52.086;4.878;2022-07-21T04:12:54;29.15;;;24.98;;
61689;SDS011;47601;52.086;4.878;2022-07-21T04:15:21;27.95;;;24.58;;
61689;SDS011;47601;52.086;4.878;2022-07-21T04:17:46;29.30;;;26.15;;
61689;SDS011;47601;52.086;4.878;2022-07-21T04:20:13;28.35;;;25.35;;
61689;SDS011;47601;52.086;4.878;2022-07-21T04:22:39;29.48;;;25.27;;
61689;SDS011;47601;52.086;4.878;2022-07-21T04:25:06;28.95;;;25.95;;
61689;SDS011;47601;52.086;4.878;2022-07-21T04:27:32;28.67;;;25.52;;
61689;SDS011;47601;52.086;4.878;2022-07-21T04:29:57;29.42;;;26.35;;
61689;SDS011;47601;52.086;4.878;2022-07-21T04:32:23;29.85;;;26.35;;
61689;SDS011;47601;52.086;4.878;2022-07-21T04:34:48;32.35;;;28.52;;
61689;SDS011;47601;52.086;4.878;2022-07-21T04:37:14;31.17;;;27.90;;
61689;SDS011;47601;52.086;4.878;2022-07-21T04:39:39;31.80;;;27.95;;
61689;SDS011;47601;52.086;4.878;2022-07-21T04:42:05;30.77;;;27.48;;
61689;SDS011;47601;52.086;4.878;2022-07-21T04:44:30;31.45;;;27.70;;
61689;SDS011;47601;52.086;4.878;2022-07-21T04:46:56;31.75;;;28.25;;
61689;SDS011;47601;52.086;4.878;2022-07-21T04:49:21;31.25;;;27.88;;
61689;SDS011;47601;52.086;4.878;2022-07-21T04:51:47;29.65;;;26.55;;
61689;SDS011;47601;52.086;4.878;2022-07-21T04:54:12;31.00;;;26.00;;
61689;SDS011;47601;52.086;4.878;2022-07-21T04:56:39;30.20;;;27.17;;
61689;SDS011;47601;52.086;4.878;2022-07-21T04:59:08;32.90;;;28.27;;
61689;SDS011;47601;52.086;4.878;2022-07-21T05:01:35;34.22;;;26.65;;
61689;SDS011;47601;52.086;4.878;2022-07-21T05:04:00;33.65;;;27.00;;
61689;SDS011;47601;52.086;4.878;2022-07-21T05:06:26;29.48;;;25.73;;
61689;SDS011;47601;52.086;4.878;2022-07-21T05:08:51;31.08;;;27.48;;
61689;SDS011;47601;52.086;4.878;2022-07-21T05:11:16;33.92;;;26.58;;
61689;SDS011;47601;52.086;4.878;2022-07-21T05:13:42;33.03;;;25.60;;
61689;SDS011;47601;52.086;4.878;2022-07-21T05:16:07;32.22;;;25.30;;
61689;SDS011;47601;52.086;4.878;2022-07-21T05:18:33;29.90;;;26.70;;
61689;SDS011;47601;52.086;4.878;2022-07-21T05:20:58;29.23;;;26.13;;
61689;SDS011;47601;52.086;4.878;2022-07-21T05:23:24;27.08;;;24.25;;
61689;SDS011;47601;52.086;4.878;2022-07-21T05:25:49;30.13;;;24.38;;
61689;SDS011;47601;52.086;4.878;2022-07-21T05:28:14;33.20;;;26.05;;
61689;SDS011;47601;52.086;4.878;2022-07-21T05:30:40;31.20;;;25.58;;
61689;SDS011;47601;52.086;4.878;2022-07-21T05:33:05;29.65;;;23.63;;
61689;SDS011;47601;52.086;4.878;2022-07-21T05:35:31;34.55;;;24.77;;
61689;SDS011;47601;52.086;4.878;2022-07-21T05:37:56;35.38;;;25.38;;
61689;SDS011;47601;52.086;4.878;2022-07-21T05:40:22;32.80;;;25.80;;
61689;SDS011;47601;52.086;4.878;2022-07-21T05:42:47;35.05;;;24.77;;
61689;SDS011;47601;52.086;4.878;2022-07-21T05:45:13;40.17;;;26.70;;
61689;SDS011;47601;52.086;4.878;2022-07-21T05:47:39;39.72;;;28.70;;
61689;SDS011;47601;52.086;4.878;2022-07-21T05:50:05;39.65;;;27.92;;
61689;SDS011;47601;52.086;4.878;2022-07-21T05:52:31;34.90;;;26.23;;
61689;SDS011;47601;52.086;4.878;2022-07-21T05:54:56;39.95;;;26.98;;
61689;SDS011;47601;52.086;4.878;2022-07-21T05:57:22;35.45;;;26.65;;
61689;SDS011;47601;52.086;4.878;2022-07-21T05:59:47;41.10;;;27.40;;
61689;SDS011;47601;52.086;4.878;2022-07-21T06:02:13;50.47;;;28.63;;
61689;SDS011;47601;52.086;4.878;2022-07-21T06:04:38;42.33;;;28.35;;
61689;SDS011;47601;52.086;4.878;2022-07-21T06:07:04;44.30;;;29.05;;
61689;SDS011;47601;52.086;4.878;2022-07-21T06:09:29;41.53;;;28.70;;
61689;SDS011;47601;52.086;4.878;2022-07-21T06:11:55;39.85;;;28.13;;
61689;SDS011;47601;52.086;4.878;2022-07-21T06:14:20;42.00;;;28.45;;
61689;SDS011;47601;52.086;4.878;2022-07-21T06:16:46;55.97;;;30.25;;
61689;SDS011;47601;52.086;4.878;2022-07-21T06:19:11;43.40;;;29.15;;
61689;SDS011;47601;52.086;4.878;2022-07-21T06:21:36;46.75;;;30.23;;
61689;SDS011;47601;52.086;4.878;2022-07-21T06:24:02;49.47;;;30.05;;
61689;SDS011;47601;52.086;4.878;2022-07-21T06:26:28;48.13;;;30.98;;
61689;SDS011;47601;52.086;4.878;2022-07-21T06:28:53;47.65;;;30.13;;
61689;SDS011;47601;52.086;4.878;2022-07-21T06:31:19;50.95;;;34.03;;
61689;SDS011;47601;52.086;4.878;2022-07-21T06:33:44;51.33;;;32.40;;
61689;SDS011;47601;52.086;4.878;2022-07-21T06:36:10;54.90;;;33.38;;
61689;SDS011;47601;52.086;4.878;2022-07-21T06:38:35;62.47;;;36.03;;
61689;SDS011;47601;52.086;4.878;2022-07-21T06:41:01;55.42;;;34.30;;
61689;SDS011;47601;52.086;4.878;2022-07-21T06:43:26;54.00;;;34.83;;
61689;SDS011;47601;52.086;4.878;2022-07-21T06:45:52;54.55;;;34.50;;
61689;SDS011;47601;52.086;4.878;2022-07-21T06:48:18;58.95;;;34.47;;
61689;SDS011;47601;52.086;4.878;2022-07-21T06:50:43;52.80;;;32.50;;
61689;SDS011;47601;52.086;4.878;2022-07-21T06:53:09;56.25;;;35.65;;
61689;SDS011;47601;52.086;4.878;2022-07-21T06:55:35;57.63;;;34.42;;
61689;SDS011;47601;52.086;4.878;2022-07-21T06:58:16;64.10;;;35.85;;
61689;SDS011;47601;52.086;4.878;2022-07-21T07:00:45;60.47;;;36.08;;
61689;SDS011;47601;52.086;4.878;2022-07-21T07:03:12;59.53;;;35.53;;
61689;SDS011;47601;52.086;4.878;2022-07-21T07:05:38;58.13;;;35.05;;
61689;SDS011;47601;52.086;4.878;2022-07-21T07:08:03;55.00;;;35.55;;
61689;SDS011;47601;52.086;4.878;2022-07-21T07:10:29;57.63;;;38.80;;
61689;SDS011;47601;52.086;4.878;2022-07-21T07:12:56;62.75;;;37.35;;
61689;SDS011;47601;52.086;4.878;2022-07-21T07:15:22;56.90;;;38.90;;
61689;SDS011;47601;52.086;4.878;2022-07-21T07:17:49;54.42;;;38.38;;
61689;SDS011;47601;52.086;4.878;2022-07-21T07:20:15;56.70;;;39.83;;
61689;SDS011;47601;52.086;4.878;2022-07-21T07:22:40;55.22;;;40.67;;
61689;SDS011;47601;52.086;4.878;2022-07-21T07:25:06;61.63;;;40.53;;
61689;SDS011;47601;52.086;4.878;2022-07-21T07:27:32;58.08;;;38.58;;
61689;SDS011;47601;52.086;4.878;2022-07-21T07:29:57;47.33;;;32.15;;
61689;SDS011;47601;52.086;4.878;2022-07-21T07:32:23;53.75;;;34.05;;
61689;SDS011;47601;52.086;4.878;2022-07-21T07:34:48;51.85;;;33.58;;
61689;SDS011;47601;52.086;4.878;2022-07-21T07:37:13;45.53;;;32.17;;
61689;SDS011;47601;52.086;4.878;2022-07-21T07:39:39;50.95;;;30.38;;
61689;SDS011;47601;52.086;4.878;2022-07-21T07:42:05;42.65;;;28.83;;
61689;SDS011;47601;52.086;4.878;2022-07-21T07:44:31;43.08;;;29.17;;
61689;SDS011;47601;52.086;4.878;2022-07-21T07:46:57;38.00;;;27.80;;
61689;SDS011;47601;52.086;4.878;2022-07-21T07:49:22;37.50;;;26.30;;
61689;SDS011;47601;52.086;4.878;2022-07-21T07:51:47;30.70;;;22.45;;
61689;SDS011;47601;52.086;4.878;2022-07-21T07:54:13;24.33;;;19.63;;
61689;SDS011;47601;52.086;4.878;2022-07-21T07:56:39;22.90;;;17.42;;
61689;SDS011;47601;52.086;4.878;2022-07-21T07:59:05;22.23;;;17.42;;
61689;SDS011;47601;52.086;4.878;2022-07-21T08:01:30;20.13;;;16.30;;
61689;SDS011;47601;52.086;4.878;2022-07-21T08:03:56;25.75;;;17.92;;
61689;SDS011;47601;52.086;4.878;2022-07-21T08:06:21;24.50;;;18.00;;
61689;SDS011;47601;52.086;4.878;2022-07-21T08:08:47;23.13;;;17.40;;
61689;SDS011;47601;52.086;4.878;2022-07-21T08:11:12;22.95;;;16.70;;
61689;SDS011;47601;52.086;4.878;2022-07-21T08:13:38;20.33;;;16.40;;
61689;SDS011;47601;52.086;4.878;2022-07-21T08:16:04;19.67;;;15.90;;
61689;SDS011;47601;52.086;4.878;2022-07-21T08:18:29;19.92;;;16.33;;
61689;SDS011;47601;52.086;4.878;2022-07-21T08:20:55;18.48;;;15.45;;
61689;SDS011;47601;52.086;4.878;2022-07-21T08:23:20;24.00;;;17.85;;
61689;SDS011;47601;52.086;4.878;2022-07-21T08:25:45;21.17;;;16.65;;
61689;SDS011;47601;52.086;4.878;2022-07-21T08:28:11;19.42;;;16.42;;
61689;SDS011;47601;52.086;4.878;2022-07-21T08:30:37;20.13;;;16.85;;
61689;SDS011;47601;52.086;4.878;2022-07-21T08:33:03;20.38;;;15.82;;
61689;SDS011;47601;52.086;4.878;2022-07-21T08:35:29;17.63;;;14.02;;
61689;SDS011;47601;52.086;4.878;2022-07-21T08:38:05;19.15;;;14.07;;
61689;SDS011;47601;52.086;4.878;2022-07-21T08:40:34;15.02;;;13.43;;
61689;SDS011;47601;52.086;4.878;2022-07-21T08:43:02;14.82;;;12.82;;
61689;SDS011;47601;52.086;4.878;2022-07-21T08:45:28;16.17;;;13.38;;
61689;SDS011;47601;52.086;4.878;2022-07-21T08:47:55;14.77;;;13.15;;
61689;SDS011;47601;52.086;4.878;2022-07-21T08:50:22;15.45;;;13.65;;
61689;SDS011;47601;52.086;4.878;2022-07-21T08:52:49;18.90;;;14.23;;
61689;SDS011;47601;52.086;4.878;2022-07-21T08:55:14;18.65;;;14.50;;
61689;SDS011;47601;52.086;4.878;2022-07-21T08:57:40;16.15;;;13.48;;
61689;SDS011;47601;52.086;4.878;2022-07-21T09:00:06;16.67;;;13.68;;
61689;SDS011;47601;52.086;4.878;2022-07-21T09:02:34;18.58;;;14.50;;
61689;SDS011;47601;52.086;4.878;2022-07-21T09:05:00;19.17;;;15.30;;
61689;SDS011;47601;52.086;4.878;2022-07-21T09:07:26;18.92;;;15.77;;
61689;SDS011;47601;52.086;4.878;2022-07-21T09:09:55;17.98;;;14.07;;
61689;SDS011;47601;52.086;4.878;2022-07-21T09:12:22;16.63;;;13.68;;
61689;SDS011;47601;52.086;4.878;2022-07-21T09:14:49;14.40;;;11.77;;
61689;SDS011;47601;52.086;4.878;2022-07-21T09:17:15;13.48;;;11.23;;
61689;SDS011;47601;52.086;4.878;2022-07-21T09:19:43;13.23;;;11.82;;
61689;SDS011;47601;52.086;4.878;2022-07-21T09:22:17;14.65;;;12.30;;
61689;SDS011;47601;52.086;4.878;2022-07-21T09:24:50;15.85;;;12.80;;
61689;SDS011;47601;52.086;4.878;2022-07-21T09:27:17;14.88;;;13.25;;
61689;SDS011;47601;52.086;4.878;2022-07-21T09:29:47;19.83;;;13.10;;
61689;SDS011;47601;52.086;4.878;2022-07-21T09:32:27;18.98;;;14.43;;
61689;SDS011;47601;52.086;4.878;2022-07-21T09:37:25;19.38;;;14.52;;
61689;SDS011;47601;52.086;4.878;2022-07-21T09:39:52;20.02;;;14.68;;
61689;SDS011;47601;52.086;4.878;2022-07-21T09:42:20;19.27;;;14.60;;
61689;SDS011;47601;52.086;4.878;2022-07-21T09:47:24;22.05;;;15.07;;
61689;SDS011;47601;52.086;4.878;2022-07-21T09:49:51;17.13;;;14.45;;
61689;SDS011;47601;52.086;4.878;2022-07-21T09:52:24;26.92;;;14.63;;
61689;SDS011;47601;52.086;4.878;2022-07-21T09:55:02;24.60;;;15.32;;
61689;SDS011;47601;52.086;4.878;2022-07-21T09:57:29;24.73;;;15.60;;
61689;SDS011;47601;52.086;4.878;2022-07-21T09:59:55;27.17;;;16.55;;
61689;SDS011;47601;52.086;4.878;2022-07-21T10:02:25;26.55;;;16.80;;
61689;SDS011;47601;52.086;4.878;2022-07-21T10:05:02;26.63;;;16.60;;
61689;SDS011;47601;52.086;4.878;2022-07-21T10:07:28;23.90;;;15.80;;
61689;SDS011;47601;52.086;4.878;2022-07-21T10:09:55;22.27;;;14.75;;
61689;SDS011;47601;52.086;4.878;2022-07-21T10:12:21;25.08;;;16.02;;
61689;SDS011;47601;52.086;4.878;2022-07-21T10:14:47;31.40;;;17.17;;
61689;SDS011;47601;52.086;4.878;2022-07-21T10:17:14;27.35;;;17.52;;
61689;SDS011;47601;52.086;4.878;2022-07-21T10:23:16;28.05;;;18.77;;
61689;SDS011;47601;52.086;4.878;2022-07-21T10:25:22;32.08;;;17.90;;
61689;SDS011;47601;52.086;4.878;2022-07-21T10:33:08;16.08;;;12.43;;
61689;SDS011;47601;52.086;4.878;2022-07-21T10:35:34;16.38;;;12.48;;
61689;SDS011;47601;52.086;4.878;2022-07-21T10:38:00;18.42;;;11.73;;
61689;SDS011;47601;52.086;4.878;2022-07-21T10:45:31;19.02;;;13.00;;
61689;SDS011;47601;52.086;4.878;2022-07-21T10:48:02;16.63;;;12.27;;
61689;SDS011;47601;52.086;4.878;2022-07-21T10:50:33;16.80;;;13.70;;
61689;SDS011;47601;52.086;4.878;2022-07-21T10:55:48;13.38;;;11.98;;
61689;SDS011;47601;52.086;4.878;2022-07-21T10:58:24;16.25;;;9.98;;
61689;SDS011;47601;52.086;4.878;2022-07-21T11:00:57;9.48;;;7.90;;
61689;SDS011;47601;52.086;4.878;2022-07-21T11:03:24;10.57;;;8.27;;
61689;SDS011;47601;52.086;4.878;2022-07-21T11:08:30;7.82;;;7.10;;
61689;SDS011;47601;52.086;4.878;2022-07-21T11:11:09;8.52;;;7.63;;
61689;SDS011;47601;52.086;4.878;2022-07-21T11:22:02;7.82;;;6.68;;
61689;SDS011;47601;52.086;4.878;2022-07-21T11:24:37;9.30;;;7.47;;
61689;SDS011;47601;52.086;4.878;2022-07-21T11:29:32;9.77;;;5.90;;
61689;SDS011;47601;52.086;4.878;2022-07-21T11:31:59;9.60;;;5.22;;
61689;SDS011;47601;52.086;4.878;2022-07-21T11:35:10;12.40;;;5.80;;
61689;SDS011;47601;52.086;4.878;2022-07-21T11:39:54;10.02;;;5.80;;
61689;SDS011;47601;52.086;4.878;2022-07-21T11:42:19;8.38;;;4.68;;
61689;SDS011;47601;52.086;4.878;2022-07-21T11:44:45;7.22;;;3.47;;
61689;SDS011;47601;52.086;4.878;2022-07-21T11:47:12;4.35;;;3.30;;
61689;SDS011;47601;52.086;4.878;2022-07-21T11:49:39;3.88;;;2.58;;
61689;SDS011;47601;52.086;4.878;2022-07-21T11:52:08;4.50;;;2.95;;
61689;SDS011;47601;52.086;4.878;2022-07-21T11:54:38;5.75;;;2.67;;
61689;SDS011;47601;52.086;4.878;2022-07-21T11:57:15;7.55;;;2.95;;
61689;SDS011;47601;52.086;4.878;2022-07-21T11:59:41;6.28;;;3.20;;
61689;SDS011;47601;52.086;4.878;2022-07-21T12:04:58;6.28;;;3.40;;
61689;SDS011;47601;52.086;4.878;2022-07-21T12:07:29;7.18;;;3.47;;
61689;SDS011;47601;52.086;4.878;2022-07-21T12:10:24;7.57;;;3.13;;
61689;SDS011;47601;52.086;4.878;2022-07-21T12:12:50;8.50;;;4.13;;
61689;SDS011;47601;52.086;4.878;2022-07-21T12:15:17;7.30;;;4.18;;
61689;SDS011;47601;52.086;4.878;2022-07-21T12:20:28;7.78;;;4.20;;
61689;SDS011;47601;52.086;4.878;2022-07-21T12:22:58;10.45;;;3.55;;
61689;SDS011;47601;52.086;4.878;2022-07-21T12:25:30;8.30;;;3.67;;
61689;SDS011;47601;52.086;4.878;2022-07-21T12:27:58;5.65;;;3.47;;
61689;SDS011;47601;52.086;4.878;2022-07-21T12:30:37;7.32;;;3.45;;
61689;SDS011;47601;52.086;4.878;2022-07-21T12:35:58;4.72;;;2.83;;
61689;SDS011;47601;52.086;4.878;2022-07-21T12:38:35;7.50;;;2.87;;
61689;SDS011;47601;52.086;4.878;2022-07-21T12:41:00;8.18;;;3.28;;
61689;SDS011;47601;52.086;4.878;2022-07-21T12:43:26;6.30;;;2.90;;
61689;SDS011;47601;52.086;4.878;2022-07-21T12:48:28;6.38;;;3.30;;
61689;SDS011;47601;52.086;4.878;2022-07-21T12:53:52;7.93;;;2.60;;
61689;SDS011;47601;52.086;4.878;2022-07-21T12:56:22;5.38;;;2.13;;
61689;SDS011;47601;52.086;4.878;2022-07-21T12:58:50;9.88;;;2.85;;
61689;SDS011;47601;52.086;4.878;2022-07-21T13:01:17;7.10;;;2.80;;
61689;SDS011;47601;52.086;4.878;2022-07-21T13:03:44;7.93;;;2.50;;
61689;SDS011;47601;52.086;4.878;2022-07-21T13:06:10;5.65;;;2.70;;
61689;SDS011;47601;52.086;4.878;2022-07-21T13:08:36;6.88;;;2.50;;
61689;SDS011;47601;52.086;4.878;2022-07-21T13:11:03;3.85;;;2.20;;
61689;SDS011;47601;52.086;4.878;2022-07-21T13:13:30;8.38;;;3.15;;
61689;SDS011;47601;52.086;4.878;2022-07-21T13:15:57;9.20;;;3.30;;
61689;SDS011;47601;52.086;4.878;2022-07-21T13:18:22;12.45;;;4.10;;
61689;SDS011;47601;52.086;4.878;2022-07-21T13:20:48;10.88;;;3.83;;
61689;SDS011;47601;52.086;4.878;2022-07-21T13:23:14;12.70;;;4.60;;
61689;SDS011;47601;52.086;4.878;2022-07-21T13:25:40;12.88;;;4.85;;
61689;SDS011;47601;52.086;4.878;2022-07-21T13:28:05;11.55;;;4.70;;
61689;SDS011;47601;52.086;4.878;2022-07-21T13:30:31;16.48;;;4.72;;
61689;SDS011;47601;52.086;4.878;2022-07-21T13:32:56;13.75;;;4.82;;
61689;SDS011;47601;52.086;4.878;2022-07-21T13:35:22;11.85;;;4.10;;
61689;SDS011;47601;52.086;4.878;2022-07-21T13:37:47;16.98;;;3.40;;
61689;SDS011;47601;52.086;4.878;2022-07-21T13:40:13;10.95;;;3.35;;
61689;SDS011;47601;52.086;4.878;2022-07-21T13:42:38;7.30;;;2.90;;
61689;SDS011;47601;52.086;4.878;2022-07-21T13:45:04;12.00;;;3.17;;
61689;SDS011;47601;52.086;4.878;2022-07-21T13:47:32;14.00;;;3.40;;
61689;SDS011;47601;52.086;4.878;2022-07-21T13:49:58;13.57;;;3.58;;
61689;SDS011;47601;52.086;4.878;2022-07-21T13:52:23;14.32;;;3.40;;
61689;SDS011;47601;52.086;4.878;2022-07-21T13:54:49;16.92;;;3.35;;
61689;SDS011;47601;52.086;4.878;2022-07-21T13:57:14;11.65;;;3.45;;
61689;SDS011;47601;52.086;4.878;2022-07-21T13:59:39;19.00;;;3.60;;
61689;SDS011;47601;52.086;4.878;2022-07-21T14:02:06;14.73;;;3.28;;
61689;SDS011;47601;52.086;4.878;2022-07-21T14:04:32;10.70;;;2.60;;
61689;SDS011;47601;52.086;4.878;2022-07-21T14:06:58;14.68;;;2.60;;
61689;SDS011;47601;52.086;4.878;2022-07-21T14:09:23;13.65;;;3.08;;
61689;SDS011;47601;52.086;4.878;2022-07-21T14:11:48;7.78;;;1.80;;
61689;SDS011;47601;52.086;4.878;2022-07-21T14:14:14;15.73;;;2.47;;
61689;SDS011;47601;52.086;4.878;2022-07-21T14:16:42;13.25;;;2.88;;
61689;SDS011;47601;52.086;4.878;2022-07-21T14:19:08;12.93;;;2.55;;
61689;SDS011;47601;52.086;4.878;2022-07-21T14:21:34;11.85;;;3.17;;
61689;SDS011;47601;52.086;4.878;2022-07-21T14:23:59;10.95;;;2.80;;
61689;SDS011;47601;52.086;4.878;2022-07-21T14:26:43;14.32;;;3.25;;
61689;SDS011;47601;52.086;4.878;2022-07-21T14:29:08;15.65;;;3.20;;
61689;SDS011;47601;52.086;4.878;2022-07-21T14:31:34;15.80;;;2.95;;
61689;SDS011;47601;52.086;4.878;2022-07-21T14:34:00;15.23;;;3.47;;
61689;SDS011;47601;52.086;4.878;2022-07-21T14:36:25;12.45;;;3.47;;
61689;SDS011;47601;52.086;4.878;2022-07-21T14:38:50;14.30;;;3.33;;
61689;SDS011;47601;52.086;4.878;2022-07-21T14:41:16;14.52;;;3.50;;
61689;SDS011;47601;52.086;4.878;2022-07-21T14:43:42;12.90;;;3.22;;
61689;SDS011;47601;52.086;4.878;2022-07-21T14:46:07;12.30;;;3.25;;
61689;SDS011;47601;52.086;4.878;2022-07-21T14:48:33;10.73;;;2.95;;
61689;SDS011;47601;52.086;4.878;2022-07-21T14:50:58;13.48;;;3.88;;
61689;SDS011;47601;52.086;4.878;2022-07-21T14:53:24;13.48;;;4.40;;
61689;SDS011;47601;52.086;4.878;2022-07-21T14:55:49;16.63;;;4.38;;
61689;SDS011;47601;52.086;4.878;2022-07-21T14:58:15;15.27;;;4.35;;
61689;SDS011;47601;52.086;4.878;2022-07-21T15:00:40;16.08;;;3.78;;
61689;SDS011;47601;52.086;4.878;2022-07-21T15:03:06;9.90;;;3.38;;
61689;SDS011;47601;52.086;4.878;2022-07-21T15:05:32;13.93;;;3.47;;
61689;SDS011;47601;52.086;4.878;2022-07-21T15:07:57;12.07;;;3.35;;
61689;SDS011;47601;52.086;4.878;2022-07-21T15:10:23;7.60;;;2.40;;
61689;SDS011;47601;52.086;4.878;2022-07-21T15:12:48;8.45;;;2.80;;
61689;SDS011;47601;52.086;4.878;2022-07-21T15:15:14;9.88;;;2.40;;
61689;SDS011;47601;52.086;4.878;2022-07-21T15:17:40;8.43;;;2.25;;